Time;durP1;ratioP1;P1;durP2;ratioP2;P2;SDS_P1;SDS_P2;PMS_P1;PMS_P2;Temp;Humidity;BMP_temperature;BMP_pressure;BME280_temperature;BME280_humidity;BME280_pressure;Samples;Min_cycle;Max_cycle;Signal;HPM_P1;HPM_P2
2022/10/28 00:02:15;;;;;;;9.63;5.75;;;20.00;69.00;;;;;;6262288;22;20583;-74
2022/10/28 00:04:40;;;;;;;9.55;5.85;;;20.00;69.00;;;;;;6259519;22;20332;-73
2022/10/28 00:07:06;;;;;;;9.63;5.90;;;20.00;69.00;;;;;;6263326;22;20023;-71
2022/10/28 00:09:31;;;;;;;10.07;5.60;;;20.00;69.00;;;;;;6234764;22;20020;-75
2022/10/28 00:11:57;;;;;;;7.82;4.95;;;20.00;69.00;;;;;;6263614;22;20019;-73
2022/10/28 00:14:23;;;;;;;10.93;5.93;;;20.00;69.00;;;;;;6233276;22;20477;-73
2022/10/28 00:16:49;;;;;;;8.80;5.60;;;20.00;69.00;;;;;;6262643;22;20015;-74
2022/10/28 00:19:16;;;;;;;9.60;5.10;;;20.00;69.00;;;;;;6261307;22;20103;-69
2022/10/28 00:21:43;;;;;;;11.88;5.38;;;20.00;69.00;;;;;;6235025;22;20020;-74
2022/10/28 00:24:10;;;;;;;9.65;6.03;;;20.00;69.00;;;;;;6263031;22;20031;-76
2022/10/28 00:26:37;;;;;;;9.52;5.80;;;20.00;69.00;;;;;;6261708;22;20535;-72
2022/10/28 00:29:06;;;;;;;9.40;6.07;;;20.00;69.00;;;;;;6262684;22;20019;-72
2022/10/28 00:31:33;;;;;;;8.63;5.65;;;20.00;69.00;;;;;;6233673;22;20098;-75
2022/10/28 00:34:00;;;;;;;9.90;5.22;;;20.00;69.00;;;;;;6263244;22;20096;-67
2022/10/28 00:36:30;;;;;;;8.73;5.28;;;20.00;69.00;;;;;;6260541;22;20088;-74
2022/10/28 00:38:57;;;;;;;9.68;5.25;;;20.00;68.90;;;;;;6262684;22;20560;-74
2022/10/28 00:41:29;;;;;;;8.73;4.97;;;20.00;68.90;;;;;;6235748;22;20019;-74
2022/10/28 00:43:58;;;;;;;7.97;5.30;;;20.00;68.90;;;;;;6235007;22;20038;-75
2022/10/28 00:46:38;;;;;;;10.10;5.72;;;20.00;68.90;;;;;;6261561;22;20420;-73
2022/10/28 00:49:36;;;;;;;8.85;5.75;;;20.00;68.90;;;;;;6262086;22;20071;-73
2022/10/28 00:52:07;;;;;;;;;;;20.00;69.60;;;;;;6179076;22;20102;-71
2022/10/28 00:54:33;;;;;;;8.45;5.20;;;20.00;68.80;;;;;;6236093;22;19922;-75
2022/10/28 00:57:02;;;;;;;8.50;5.28;;;20.00;68.90;;;;;;6261925;22;20123;-76
2022/10/28 00:59:32;;;;;;;12.32;5.88;;;20.00;68.90;;;;;;6236783;22;20020;-74
2022/10/28 01:01:58;;;;;;;7.70;5.15;;;20.00;68.90;;;;;;6260992;22;20024;-74
2022/10/28 01:04:24;;;;;;;9.43;5.05;;;20.00;68.90;;;;;;6233639;22;20333;-73
2022/10/28 01:06:51;;;;;;;9.45;5.15;;;20.00;68.90;;;;;;6260012;22;20106;-73
2022/10/28 01:09:17;;;;;;;9.98;5.25;;;19.90;68.80;;;;;;6261711;22;20011;-71
2022/10/28 01:11:42;;;;;;;8.45;4.88;;;20.00;68.90;;;;;;6263319;22;20911;-74
2022/10/28 01:14:20;;;;;;;8.90;5.10;;;20.00;68.90;;;;;;6235729;22;20356;-70
2022/10/28 01:17:11;;;;;;;8.43;4.97;;;20.00;68.90;;;;;;6263575;22;20475;-69
2022/10/28 01:19:49;;;;;;;7.45;4.65;;;20.00;68.80;;;;;;6237180;22;20092;-69
2022/10/28 01:22:36;;;;;;;7.20;5.00;;;20.00;68.90;;;;;;6262262;22;20062;-72
2022/10/28 01:25:22;;;;;;;8.95;5.70;;;20.00;68.80;;;;;;6263178;22;20023;-72
2022/10/28 01:28:21;;;;;;;7.63;5.15;;;20.00;68.80;;;;;;6263324;22;20126;-72
2022/10/28 01:30:58;;;;;;;8.68;5.55;;;20.00;68.80;;;;;;6259169;22;20027;-74
2022/10/28 01:33:40;;;;;;;7.73;4.93;;;20.00;68.80;;;;;;6234590;22;20070;-73
2022/10/28 01:36:29;;;;;;;9.02;4.93;;;20.00;68.80;;;;;;6231980;22;20290;-75
2022/10/28 01:39:21;;;;;;;7.95;5.20;;;20.00;68.80;;;;;;6235446;22;20049;-70
2022/10/28 01:41:56;;;;;;;7.97;4.70;;;20.00;68.70;;;;;;6254907;22;20031;-76
2022/10/28 01:44:36;;;;;;;9.05;5.45;;;20.00;68.80;;;;;;6234463;22;20390;-74
2022/10/28 01:47:04;;;;;;;7.07;4.90;;;20.00;68.80;;;;;;6265438;22;20023;-74
2022/10/28 01:49:53;;;;;;;8.30;4.70;;;20.00;68.80;;;;;;6262124;22;20389;-75
2022/10/28 01:52:23;;;;;;;8.45;5.13;;;20.00;68.70;;;;;;6263627;22;20031;-72
2022/10/28 01:54:54;;;;;;;7.20;4.40;;;19.90;68.70;;;;;;6263724;22;20012;-74
2022/10/28 01:57:24;;;;;;;8.32;4.85;;;20.00;68.70;;;;;;6262485;22;20020;-75
2022/10/28 01:59:51;;;;;;;8.00;4.65;;;20.00;68.70;;;;;;6262608;22;20019;-72
2022/10/28 02:02:17;;;;;;;8.48;4.75;;;20.00;68.70;;;;;;6235551;22;20436;-69
2022/10/28 02:04:42;;;;;;;6.90;4.60;;;19.90;69.40;;;;;;6261787;22;20500;-71
2022/10/28 02:07:08;;;;;;;6.97;4.65;;;20.00;68.70;;;;;;6236731;22;20023;-74
2022/10/28 02:10:02;;;;;;;9.55;5.15;;;20.00;68.70;;;;;;6264081;22;20094;-73
2022/10/28 02:12:34;;;;;;;10.95;5.00;;;20.00;68.60;;;;;;6264930;22;20020;-73
2022/10/28 02:15:30;;;;;;;8.23;4.88;;;19.90;68.60;;;;;;6262216;22;20065;-71
2022/10/28 02:18:45;;;;;;;6.40;4.38;;;20.00;68.60;;;;;;6234957;22;20051;-72
2022/10/28 02:21:29;;;;;;;7.13;4.60;;;20.00;68.70;;;;;;6179184;22;20073;-69
2022/10/28 02:24:33;;;;;;;7.43;4.70;;;19.90;68.60;;;;;;6235657;22;20100;-71
2022/10/28 02:27:16;;;;;;;7.15;4.18;;;20.00;68.60;;;;;;6235690;22;20368;-70
2022/10/28 02:29:54;;;;;;;9.77;4.53;;;20.00;68.60;;;;;;6264300;22;20296;-72
2022/10/28 02:32:24;;;;;;;6.82;4.15;;;19.90;68.60;;;;;;6260550;22;20094;-74
2022/10/28 02:34:54;;;;;;;7.90;4.82;;;20.00;68.60;;;;;;6235142;22;20389;-74
2022/10/28 02:37:30;;;;;;;8.40;4.50;;;19.90;68.50;;;;;;6236693;22;20020;-70
2022/10/28 02:40:11;;;;;;;7.53;4.70;;;20.00;68.60;;;;;;6260818;22;20016;-75
2022/10/28 02:42:43;;;;;;;5.57;3.85;;;20.00;68.50;;;;;;6264615;22;20382;-72
2022/10/28 02:45:16;;;;;;;7.88;4.40;;;20.00;68.60;;;;;;6235647;22;20015;-70
2022/10/28 02:47:47;;;;;;;7.63;4.60;;;20.00;68.50;;;;;;6262756;22;20132;-69
2022/10/28 02:50:18;;;;;;;8.50;4.32;;;20.00;68.50;;;;;;6263439;22;20019;-74
2022/10/28 02:52:48;;;;;;;6.68;4.18;;;20.00;68.60;;;;;;6263074;22;20293;-71
2022/10/28 02:55:14;;;;;;;7.57;4.45;;;19.90;68.50;;;;;;6264476;22;20024;-68
2022/10/28 02:57:43;;;;;;;8.30;4.25;;;19.90;68.50;;;;;;6263087;22;20410;-72
2022/10/28 03:00:13;;;;;;;10.68;4.68;;;20.00;68.50;;;;;;6263669;22;20287;-71
2022/10/28 03:02:39;;;;;;;6.57;4.15;;;19.90;68.50;;;;;;6209173;22;20399;-73
2022/10/28 03:05:05;;;;;;;5.13;4.03;;;20.00;68.50;;;;;;6264005;22;20033;-70
2022/10/28 03:07:31;;;;;;;7.30;4.10;;;20.00;68.60;;;;;;6264029;22;20571;-70
2022/10/28 03:09:57;;;;;;;5.97;3.95;;;20.00;68.50;;;;;;6261592;22;20031;-74
2022/10/28 03:12:22;;;;;;;6.47;4.20;;;20.00;68.50;;;;;;6263140;22;20019;-68
2022/10/28 03:14:48;;;;;;;6.03;4.00;;;20.00;68.50;;;;;;6262474;22;20026;-72
2022/10/28 03:17:13;;;;;;;5.80;3.92;;;19.90;68.40;;;;;;6236233;22;20356;-72
2022/10/28 03:19:39;;;;;;;9.07;4.35;;;19.90;68.40;;;;;;6261499;22;20058;-72
2022/10/28 03:22:04;;;;;;;8.00;3.95;;;19.90;68.40;;;;;;6263562;22;20024;-73
2022/10/28 03:24:30;;;;;;;7.15;4.07;;;19.90;68.40;;;;;;6263372;22;20020;-76
2022/10/28 03:26:56;;;;;;;5.03;3.50;;;19.90;68.40;;;;;;6262889;22;20289;-75
2022/10/28 03:29:21;;;;;;;4.75;3.88;;;19.90;68.40;;;;;;6234995;22;20020;-74
2022/10/28 03:31:47;;;;;;;5.07;3.35;;;19.90;68.40;;;;;;6261828;22;20297;-70
2022/10/28 03:34:12;;;;;;;7.32;4.50;;;19.90;68.40;;;;;;6236316;22;20051;-72
2022/10/28 03:36:38;;;;;;;5.28;3.80;;;19.90;68.40;;;;;;6263080;22;20037;-75
2022/10/28 03:39:04;;;;;;;5.25;3.60;;;19.90;68.40;;;;;;6264405;22;20038;-75
2022/10/28 03:41:29;;;;;;;5.20;3.65;;;19.90;68.40;;;;;;6263270;22;20548;-75
2022/10/28 03:43:58;;;;;;;6.65;3.72;;;19.90;68.40;;;;;;6263317;22;20020;-73
2022/10/28 03:46:23;;;;;;;5.43;3.67;;;19.90;68.40;;;;;;6263417;22;20031;-75
2022/10/28 03:48:51;;;;;;;8.00;4.00;;;19.90;68.40;;;;;;6233560;22;20011;-75
2022/10/28 03:51:17;;;;;;;6.07;3.95;;;19.90;68.40;;;;;;6236222;22;20019;-72
2022/10/28 03:53:42;;;;;;;6.15;3.85;;;19.90;68.40;;;;;;6262187;22;20442;-74
2022/10/28 03:56:12;;;;;;;8.88;3.88;;;19.90;68.40;;;;;;6262026;22;20050;-75
2022/10/28 03:58:38;;;;;;;7.95;3.72;;;19.80;68.30;;;;;;6233233;22;20016;-75
2022/10/28 04:01:03;;;;;;;5.70;3.83;;;19.90;68.40;;;;;;6263919;22;20012;-75
2022/10/28 04:03:29;;;;;;;6.68;3.60;;;19.80;68.30;;;;;;6261497;22;20149;-73
2022/10/28 04:05:55;;;;;;;4.68;3.85;;;19.80;68.40;;;;;;6261774;22;20121;-75
2022/10/28 04:08:21;;;;;;;6.13;3.53;;;19.80;68.30;;;;;;6234484;22;20034;-72
2022/10/28 04:10:47;;;;;;;5.22;3.65;;;19.80;68.30;;;;;;6236016;22;20012;-73
2022/10/28 04:13:13;;;;;;;4.65;3.35;;;19.80;68.30;;;;;;6263008;22;20103;-75
2022/10/28 04:15:39;;;;;;;6.65;3.30;;;19.80;68.30;;;;;;6262870;22;20047;-73
2022/10/28 04:18:05;;;;;;;5.63;3.45;;;19.90;68.30;;;;;;6233668;22;20112;-74
2022/10/28 04:20:31;;;;;;;6.63;3.45;;;19.80;68.30;;;;;;6235747;22;20020;-75
2022/10/28 04:22:58;;;;;;;3.92;3.45;;;19.90;68.30;;;;;;6262547;22;20086;-75
2022/10/28 04:25:25;;;;;;;4.30;3.28;;;19.80;68.20;;;;;;6235732;22;20430;-74
2022/10/28 04:27:51;;;;;;;5.45;3.70;;;19.80;68.20;;;;;;6234658;22;20019;-72
2022/10/28 04:30:17;;;;;;;4.97;3.40;;;19.80;68.20;;;;;;6261882;22;20573;-69
2022/10/28 04:32:43;;;;;;;5.80;3.80;;;19.80;68.20;;;;;;6261117;22;20054;-73
2022/10/28 04:35:10;;;;;;;5.63;3.60;;;19.80;68.20;;;;;;6235824;22;20023;-70
2022/10/28 04:37:36;;;;;;;7.32;3.90;;;19.80;68.40;;;;;;6263708;22;20062;-75
2022/10/28 04:40:02;;;;;;;6.32;3.42;;;19.80;68.10;;;;;;6263542;22;20054;-71
2022/10/28 04:42:28;;;;;;;5.07;3.53;;;19.80;68.20;;;;;;6235957;22;20454;-73
2022/10/28 04:44:54;;;;;;;5.10;3.40;;;19.80;68.10;;;;;;6232834;22;20043;-73
2022/10/28 04:47:19;;;;;;;6.50;3.40;;;19.80;68.10;;;;;;6263592;22;20134;-73
2022/10/28 04:49:45;;;;;;;5.45;2.88;;;19.80;68.10;;;;;;6260589;22;20020;-75
2022/10/28 04:52:12;;;;;;;6.22;3.70;;;19.80;68.00;;;;;;6262633;22;20527;-74
2022/10/28 04:54:37;;;;;;;6.80;3.58;;;19.80;68.00;;;;;;6234482;22;20023;-75
2022/10/28 04:57:03;;;;;;;5.32;3.38;;;19.80;68.00;;;;;;6264403;22;20128;-71
2022/10/28 04:59:29;;;;;;;4.70;3.50;;;19.80;68.00;;;;;;6233881;22;20066;-75
2022/10/28 05:01:54;;;;;;;7.53;3.40;;;19.80;68.00;;;;;;6260893;22;20141;-75
2022/10/28 05:04:23;;;;;;;4.47;3.13;;;19.80;67.90;;;;;;6260955;22;20024;-75
2022/10/28 05:06:48;;;;;;;4.60;3.17;;;19.80;67.90;;;;;;6233986;22;20027;-75
2022/10/28 05:09:14;;;;;;;5.03;2.85;;;19.80;67.90;;;;;;6235174;22;20329;-74
2022/10/28 05:11:39;;;;;;;5.15;3.28;;;19.80;67.90;;;;;;6234322;22;20035;-88
2022/10/28 05:14:05;;;;;;;6.28;3.30;;;19.80;67.80;;;;;;6263438;22;20054;-71
2022/10/28 05:16:31;;;;;;;6.10;3.40;;;19.80;67.80;;;;;;6234024;22;20523;-74
2022/10/28 05:18:57;;;;;;;5.28;3.20;;;19.80;67.80;;;;;;6262064;22;20368;-75
2022/10/28 05:21:23;;;;;;;6.88;3.38;;;19.80;67.90;;;;;;6262866;22;20093;-75
2022/10/28 05:23:48;;;;;;;5.55;3.30;;;19.80;67.80;;;;;;6233645;22;20235;-75
2022/10/28 05:26:14;;;;;;;5.10;3.20;;;19.80;67.80;;;;;;6262552;22;20095;-75
2022/10/28 05:28:39;;;;;;;5.63;3.10;;;19.80;67.80;;;;;;6260897;22;20087;-76
2022/10/28 05:31:05;;;;;;;4.93;3.30;;;19.80;67.80;;;;;;6234591;22;20026;-74
2022/10/28 05:33:32;;;;;;;5.63;3.50;;;19.80;67.80;;;;;;6260579;22;20445;-75
2022/10/28 05:35:59;;;;;;;4.32;2.80;;;19.80;67.80;;;;;;6262321;22;20072;-75
2022/10/28 05:38:25;;;;;;;5.85;3.50;;;19.80;67.80;;;;;;6262640;22;20035;-73
2022/10/28 05:40:51;;;;;;;6.07;3.30;;;19.80;67.80;;;;;;6261439;22;20023;-76
2022/10/28 05:43:17;;;;;;;5.13;3.40;;;19.80;67.80;;;;;;6261230;22;20027;-73
2022/10/28 05:45:42;;;;;;;6.88;3.40;;;19.80;67.80;;;;;;6261717;22;20567;-74
2022/10/28 05:48:11;;;;;;;4.32;2.85;;;19.70;67.70;;;;;;6260685;22;20028;-80
2022/10/28 05:50:37;;;;;;;5.32;3.13;;;19.80;67.80;;;;;;6236269;22;20405;-78
2022/10/28 05:53:02;;;;;;;4.28;3.25;;;19.80;67.70;;;;;;6236360;22;20097;-73
2022/10/28 05:55:30;;;;;;;5.40;3.22;;;19.80;67.80;;;;;;6262658;22;20047;-74
2022/10/28 05:57:56;;;;;;;7.07;3.40;;;19.80;67.80;;;;;;6233642;22;20027;-75
2022/10/28 06:00:23;;;;;;;10.32;3.10;;;19.80;67.80;;;;;;6237154;22;20015;-73
2022/10/28 06:02:49;;;;;;;8.60;2.85;;;19.80;67.80;;;;;;6262888;22;20581;-74
2022/10/28 06:05:18;;;;;;;5.78;3.38;;;19.80;67.80;;;;;;6264487;22;20548;-75
2022/10/28 06:07:45;;;;;;;9.18;3.45;;;19.80;67.80;;;;;;6263570;22;20016;-69
2022/10/28 06:10:11;;;;;;;7.22;2.78;;;19.80;67.80;;;;;;6239025;22;20019;-75
2022/10/28 06:12:36;;;;;;;6.07;3.10;;;19.80;67.80;;;;;;6265485;22;20026;-71
2022/10/28 06:15:03;;;;;;;5.97;3.15;;;19.80;67.70;;;;;;6264835;22;20023;-68
2022/10/28 06:17:29;;;;;;;9.73;3.05;;;19.80;67.80;;;;;;6264999;22;20027;-72
2022/10/28 06:19:54;;;;;;;8.50;3.25;;;19.80;67.80;;;;;;6264028;22;20462;-73
2022/10/28 06:22:20;;;;;;;7.03;3.10;;;19.80;67.80;;;;;;6265504;22;20027;-76
2022/10/28 06:24:45;;;;;;;6.70;2.85;;;19.80;67.80;;;;;;6265666;22;20086;-71
2022/10/28 06:27:11;;;;;;;12.55;3.50;;;19.80;67.80;;;;;;6264968;22;20379;-70
2022/10/28 06:29:37;;;;;;;6.07;3.40;;;19.80;67.80;;;;;;6263969;22;20415;-72
2022/10/28 06:32:02;;;;;;;5.75;3.30;;;19.90;67.90;;;;;;6264543;22;20083;-75
2022/10/28 06:34:28;;;;;;;12.60;3.53;;;19.90;68.00;;;;;;6236864;22;20019;-76
2022/10/28 06:36:54;;;;;;;6.72;3.58;;;19.90;68.00;;;;;;6267092;22;20011;-73
2022/10/28 06:39:19;;;;;;;8.55;3.30;;;19.90;68.10;;;;;;6215574;22;20016;-74
2022/10/28 06:41:45;;;;;;;6.90;3.58;;;19.90;68.20;;;;;;6238396;22;20047;-72
2022/10/28 06:44:10;;;;;;;9.65;3.55;;;19.90;68.20;;;;;;6239227;22;20030;-70
2022/10/28 06:46:36;;;;;;;6.63;3.63;;;19.90;68.30;;;;;;6265505;22;20015;-70
2022/10/28 06:49:03;;;;;;;7.20;3.42;;;19.90;68.40;;;;;;6264881;22;20122;-70
2022/10/28 06:51:29;;;;;;;6.53;3.47;;;19.90;68.40;;;;;;6232927;22;20539;-77
2022/10/28 06:53:55;;;;;;;7.65;3.63;;;19.90;68.40;;;;;;6265683;22;20058;-78
2022/10/28 06:56:21;;;;;;;5.88;3.47;;;19.90;68.50;;;;;;6263718;22;20027;-74
2022/10/28 06:58:53;;;;;;;9.02;3.53;;;19.90;68.50;;;;;;6262590;22;20047;-74
2022/10/28 07:01:20;;;;;;;12.98;3.58;;;19.90;68.60;;;;;;6263527;22;20031;-77
2022/10/28 07:03:46;;;;;;;6.97;3.63;;;19.90;68.60;;;;;;6261927;22;20020;-76
2022/10/28 07:06:12;;;;;;;6.50;3.67;;;19.90;68.60;;;;;;6262848;22;20448;-79
2022/10/28 07:08:38;;;;;;;6.88;3.75;;;20.00;68.60;;;;;;6261938;22;20779;-71
2022/10/28 07:11:04;;;;;;;10.85;3.47;;;20.00;68.60;;;;;;6263085;22;20022;-72
2022/10/28 07:13:30;;;;;;;7.32;3.65;;;20.10;68.50;;;;;;6264456;22;20480;-72
2022/10/28 07:15:57;;;;;;;7.38;3.40;;;20.20;67.80;;;;;;6235142;22;20019;-75
2022/10/28 07:18:25;;;;;;;7.10;3.45;;;20.30;68.00;;;;;;6262097;22;20493;-80
2022/10/28 07:20:50;;;;;;;10.10;3.30;;;20.60;67.20;;;;;;6262587;22;20352;-69
2022/10/28 07:23:16;;;;;;;6.90;3.50;;;20.70;67.30;;;;;;6264941;22;20020;-73
2022/10/28 07:25:42;;;;;;;11.38;3.70;;;20.80;66.80;;;;;;6263723;22;20384;-75
2022/10/28 07:28:10;;;;;;;7.88;3.80;;;20.90;66.70;;;;;;6264920;22;20080;-78
2022/10/28 07:30:36;;;;;;;8.20;4.00;;;20.80;66.70;;;;;;6263044;22;20023;-73
2022/10/28 07:33:04;;;;;;;12.25;3.40;;;20.70;66.80;;;;;;6264494;22;20102;-73
2022/10/28 07:35:30;;;;;;;8.18;3.28;;;20.70;66.90;;;;;;6263438;22;20094;-70
2022/10/28 07:37:57;;;;;;;6.43;4.03;;;20.70;67.00;;;;;;6236960;22;20027;-74
2022/10/28 07:40:24;;;;;;;8.85;3.67;;;20.70;67.00;;;;;;6264019;22;20022;-78
2022/10/28 07:42:50;;;;;;;9.15;3.25;;;20.70;67.00;;;;;;6262218;22;20225;-74
2022/10/28 07:45:16;;;;;;;7.13;3.22;;;20.80;67.20;;;;;;6236129;22;20471;-74
2022/10/28 07:47:42;;;;;;;6.57;3.47;;;20.80;67.10;;;;;;6261550;22;20055;-75
2022/10/28 07:50:09;;;;;;;6.15;3.45;;;20.80;67.20;;;;;;6264643;22;20023;-73
2022/10/28 07:52:35;;;;;;;7.13;3.80;;;20.80;67.30;;;;;;6263799;22;20507;-67
2022/10/28 07:55:03;;;;;;;8.55;3.25;;;20.80;67.40;;;;;;6263460;22;20023;-74
2022/10/28 07:57:28;;;;;;;6.82;3.78;;;20.90;67.50;;;;;;6265022;22;20019;-73
2022/10/28 07:59:54;;;;;;;6.88;3.50;;;20.80;67.50;;;;;;6234154;22;20727;-71
2022/10/28 08:02:23;;;;;;;6.32;3.33;;;20.90;67.60;;;;;;6263361;22;20016;-73
2022/10/28 08:04:51;;;;;;;6.20;3.90;;;20.90;67.70;;;;;;6261904;22;20058;-70
2022/10/28 08:07:17;;;;;;;9.27;3.97;;;20.90;67.70;;;;;;6237509;22;20034;-73
2022/10/28 08:09:42;;;;;;;6.90;3.70;;;20.90;67.80;;;;;;6263202;22;20113;-73
2022/10/28 08:12:11;;;;;;;8.52;3.45;;;20.90;67.80;;;;;;6230871;23;20016;-69
2022/10/28 08:14:37;;;;;;;10.75;3.60;;;20.90;67.90;;;;;;6230605;23;20095;-74
2022/10/28 08:17:02;;;;;;;6.78;3.92;;;20.90;68.00;;;;;;6231248;23;20091;-75
2022/10/28 08:19:28;;;;;;;5.93;3.70;;;20.90;68.10;;;;;;6230678;23;20461;-74
2022/10/28 08:21:54;;;;;;;6.32;3.40;;;20.90;68.20;;;;;;6232312;22;20040;-70
2022/10/28 08:24:19;;;;;;;12.38;4.03;;;20.90;68.30;;;;;;6233212;23;20458;-74
2022/10/28 08:26:45;;;;;;;8.70;3.50;;;20.90;68.30;;;;;;6232563;23;20432;-74
2022/10/28 08:29:11;;;;;;;8.57;3.47;;;20.90;68.30;;;;;;6231611;23;20456;-70
2022/10/28 08:31:37;;;;;;;6.45;3.63;;;20.90;68.40;;;;;;6204913;23;20048;-73
2022/10/28 08:34:04;;;;;;;9.43;3.83;;;20.90;68.40;;;;;;6231814;22;20138;-78
2022/10/28 08:36:30;;;;;;;6.68;3.40;;;20.90;68.40;;;;;;6233129;22;20400;-73
2022/10/28 08:38:58;;;;;;;11.10;3.70;;;20.90;68.40;;;;;;6229913;22;20106;-68
2022/10/28 08:41:32;;;;;;;6.85;3.60;;;20.90;68.40;;;;;;6228989;22;20020;-75
2022/10/28 08:44:23;;;;;;;8.13;3.50;;;20.90;68.50;;;;;;6228585;23;20020;-72
2022/10/28 08:46:54;;;;;;;8.65;3.70;;;21.00;68.50;;;;;;6230165;22;20047;-76
2022/10/28 08:49:22;;;;;;;8.20;3.67;;;21.00;68.50;;;;;;6231343;23;20058;-74
2022/10/28 08:51:57;;;;;;;8.63;3.63;;;21.00;68.50;;;;;;6230021;23;20784;-77
2022/10/28 08:54:30;;;;;;;9.75;3.80;;;21.00;68.50;;;;;;6229945;23;20023;-71
2022/10/28 08:56:59;;;;;;;9.25;3.40;;;21.00;68.50;;;;;;6232118;22;20095;-74
2022/10/28 08:59:34;;;;;;;6.43;3.78;;;21.00;68.50;;;;;;6230861;23;20016;-75
2022/10/28 09:02:10;;;;;;;6.85;3.60;;;21.00;68.60;;;;;;6232844;22;20108;-75
2022/10/28 09:04:44;;;;;;;6.03;3.50;;;21.00;68.50;;;;;;6227177;23;20020;-73
2022/10/28 09:07:17;;;;;;;9.20;3.53;;;21.00;68.40;;;;;;6235013;22;20016;-76
2022/10/28 09:09:44;;;;;;;11.43;3.45;;;21.00;68.30;;;;;;6232103;23;21022;-75
2022/10/28 09:12:24;;;;;;;7.53;3.80;;;21.00;68.50;;;;;;6250740;22;20103;-76
2022/10/28 09:15:28;;;;;;;10.98;3.50;;;21.00;68.50;;;;;;6236042;22;20070;-74
2022/10/28 09:18:11;;;;;;;8.65;3.67;;;21.00;68.40;;;;;;6232625;22;20019;-70
2022/10/28 09:20:48;;;;;;;11.30;3.97;;;21.00;68.40;;;;;;6261959;22;20043;-70
2022/10/28 09:23:23;;;;;;;8.95;3.60;;;20.90;68.40;;;;;;6235563;22;20074;-68
2022/10/28 09:26:01;;;;;;;5.38;3.20;;;20.90;68.30;;;;;;6235013;22;20364;-74
2022/10/28 09:28:52;;;;;;;11.30;3.65;;;20.90;68.40;;;;;;6234157;22;20125;-75
2022/10/28 09:31:36;;;;;;;10.50;3.50;;;20.90;68.30;;;;;;6235013;22;20120;-77
2022/10/28 09:34:27;;;;;;;6.97;3.42;;;20.90;68.30;;;;;;6237339;22;20015;-73
2022/10/28 09:37:01;;;;;;;10.75;3.83;;;20.90;68.30;;;;;;6238001;22;20016;-71
2022/10/28 09:39:38;;;;;;;12.50;3.45;;;20.90;68.30;;;;;;6264036;22;20015;-75
2022/10/28 09:42:05;;;;;;;7.63;3.35;;;20.80;68.30;;;;;;6214881;22;20011;-75
2022/10/28 09:44:42;;;;;;;7.57;3.38;;;20.80;68.30;;;;;;6236556;22;20775;-70
2022/10/28 09:47:19;;;;;;;6.63;3.33;;;20.80;68.20;;;;;;6263685;22;20494;-69
2022/10/28 09:49:47;;;;;;;8.70;3.72;;;20.80;68.20;;;;;;6210571;22;20016;-72
2022/10/28 09:52:20;;;;;;;5.97;3.28;;;20.80;68.30;;;;;;6236198;22;20077;-69
2022/10/28 09:54:50;;;;;;;7.15;3.53;;;20.80;68.30;;;;;;6263255;22;20023;-70
2022/10/28 09:57:16;;;;;;;6.70;3.58;;;20.80;68.30;;;;;;6262501;22;20482;-73
2022/10/28 09:59:42;;;;;;;7.20;3.50;;;20.80;68.20;;;;;;6264969;22;20019;-71
2022/10/28 10:02:32;;;;;;;9.52;3.97;;;20.80;68.30;;;;;;6212104;22;20015;-75
2022/10/28 10:04:59;;;;;;;8.85;3.90;;;20.80;68.20;;;;;;6235162;22;20026;-72
2022/10/28 10:07:31;;;;;;;8.90;3.53;;;20.80;68.30;;;;;;6264279;22;20069;-73
2022/10/28 10:10:00;;;;;;;7.43;3.70;;;20.80;68.40;;;;;;6264066;22;20065;-72
2022/10/28 10:12:28;;;;;;;12.60;3.90;;;20.80;68.40;;;;;;6238318;22;20081;-71
2022/10/28 10:14:57;;;;;;;7.40;3.70;;;20.80;68.50;;;;;;6236895;22;20055;-73
2022/10/28 10:17:40;;;;;;;6.28;3.90;;;20.80;68.50;;;;;;6265365;22;20090;-71
2022/10/28 10:20:09;;;;;;;8.10;3.40;;;20.80;68.50;;;;;;6265628;22;20042;-71
2022/10/28 10:22:40;;;;;;;9.27;4.18;;;20.80;68.60;;;;;;6263282;22;20062;-74
2022/10/28 10:25:17;;;;;;;5.47;3.33;;;20.80;68.60;;;;;;6236484;22;20043;-74
2022/10/28 10:27:57;;;;;;;9.15;3.90;;;20.80;68.70;;;;;;6263603;22;20046;-69
2022/10/28 10:30:43;;;;;;;11.93;4.07;;;20.80;68.80;;;;;;6237302;22;20332;-75
2022/10/28 10:33:19;;;;;;;8.65;3.58;;;20.80;69.60;;;;;;6236498;22;20015;-76
2022/10/28 10:35:52;;;;;;;5.70;3.38;;;20.80;68.80;;;;;;6208669;22;20020;-73
2022/10/28 10:38:18;;;;;;;7.03;3.92;;;20.80;68.90;;;;;;6264014;22;20026;-72
2022/10/28 10:40:51;;;;;;;7.75;3.25;;;20.80;68.90;;;;;;6263665;22;20039;-77
2022/10/28 10:43:16;;;;;;;6.97;3.63;;;20.80;69.00;;;;;;6263939;22;20023;-76
2022/10/28 10:45:52;;;;;;;10.07;3.88;;;20.80;69.00;;;;;;6263761;22;20019;-68
2022/10/28 10:48:18;;;;;;;7.82;4.07;;;20.80;69.00;;;;;;6261596;22;20043;-76
2022/10/28 10:50:48;;;;;;;5.18;3.50;;;20.80;69.10;;;;;;6264874;22;20460;-73
2022/10/28 10:53:22;;;;;;;9.00;3.58;;;20.80;69.10;;;;;;6210157;22;20023;-73
2022/10/28 10:56:03;;;;;;;7.00;3.72;;;20.80;69.10;;;;;;6235941;22;20622;-75
2022/10/28 10:58:31;;;;;;;6.57;3.88;;;20.80;69.10;;;;;;6263198;22;20047;-74
2022/10/28 11:01:00;;;;;;;14.65;3.83;;;20.80;69.20;;;;;;6263567;22;20016;-74
2022/10/28 11:03:37;;;;;;;8.38;4.03;;;20.80;69.20;;;;;;6235835;22;20430;-71
2022/10/28 11:06:06;;;;;;;6.50;3.50;;;20.80;69.10;;;;;;6262378;22;20436;-69
2022/10/28 11:08:42;;;;;;;8.85;4.07;;;20.80;69.10;;;;;;6263072;22;20023;-74
2022/10/28 11:11:20;;;;;;;7.22;3.50;;;20.80;69.10;;;;;;6264097;22;20015;-73
2022/10/28 11:13:48;;;;;;;7.45;3.58;;;20.80;69.00;;;;;;6235596;22;20436;-75
2022/10/28 11:16:21;;;;;;;7.10;3.43;;;20.80;69.10;;;;;;6263118;22;20008;-70
2022/10/28 11:18:49;;;;;;;6.90;3.88;;;20.80;69.10;;;;;;6233504;22;20066;-74
2022/10/28 11:21:41;;;;;;;7.43;4.20;;;20.80;69.00;;;;;;6237741;22;20437;-77
2022/10/28 11:24:39;;;;;;;9.27;3.97;;;20.80;68.90;;;;;;6262360;22;20023;-73
2022/10/28 11:27:43;;;;;;;14.83;4.60;;;20.80;68.90;;;;;;6229964;22;20125;-74
2022/10/28 11:30:14;;;;;;;10.43;4.15;;;20.80;69.00;;;;;;6204664;22;20024;-71
2022/10/28 11:32:58;;;;;;;10.63;4.00;;;20.80;69.00;;;;;;6260393;22;20027;-72
2022/10/28 11:35:43;;;;;;;9.50;3.65;;;20.80;69.10;;;;;;6259970;22;20064;-70
2022/10/28 11:38:26;;;;;;;11.98;4.13;;;20.80;69.00;;;;;;6261191;22;20028;-71
2022/10/28 11:40:57;;;;;;;15.80;5.00;;;20.80;69.00;;;;;;6232463;22;20019;-75
2022/10/28 11:43:43;;;;;;;11.90;5.35;;;20.80;69.00;;;;;;6235050;22;20098;-71
2022/10/28 11:46:15;;;;;;;14.30;5.00;;;20.80;68.90;;;;;;6261546;22;20039;-74
2022/10/28 11:48:56;;;;;;;15.75;5.13;;;20.80;69.00;;;;;;6259752;22;20137;-74
2022/10/28 11:51:33;;;;;;;9.63;5.45;;;20.80;69.00;;;;;;6263854;22;20077;-65
2022/10/28 11:54:20;;;;;;;13.55;4.95;;;20.80;69.10;;;;;;6258194;22;20028;-70
2022/10/28 11:57:06;;;;;;;15.02;5.38;;;20.80;69.00;;;;;;6263155;22;20428;-70
2022/10/28 11:59:50;;;;;;;18.02;5.97;;;20.80;69.00;;;;;;6262522;22;20035;-75
2022/10/28 12:02:37;;;;;;;12.70;5.40;;;20.80;68.90;;;;;;6260032;22;20054;-75
2022/10/28 12:05:27;;;;;;;14.35;5.00;;;20.80;68.80;;;;;;6228511;22;20024;-69
2022/10/28 12:08:04;;;;;;;14.55;5.22;;;20.80;68.80;;;;;;6237950;22;20339;-79
2022/10/28 12:10:37;;;;;;;22.02;5.75;;;20.90;69.00;;;;;;6269320;22;20016;-75
2022/10/28 12:13:13;;;;;;;14.23;5.40;;;20.90;69.00;;;;;;6241204;22;20023;-78
2022/10/28 12:15:54;;;;;;;15.77;5.13;;;20.90;69.00;;;;;;6269657;22;20086;-78
2022/10/28 12:18:25;;;;;;;13.18;5.25;;;20.90;69.00;;;;;;6247176;22;20038;-78
2022/10/28 12:20:51;;;;;;;18.70;5.63;;;20.90;69.00;;;;;;6268768;22;20030;-78
2022/10/28 12:23:19;;;;;;;14.27;5.43;;;20.90;69.00;;;;;;6241992;22;20020;-78
2022/10/28 12:25:49;;;;;;;16.98;5.40;;;20.90;69.00;;;;;;6268010;22;20043;-75
2022/10/28 12:28:30;;;;;;;11.23;5.00;;;20.90;69.00;;;;;;6241121;22;20016;-75
2022/10/28 12:30:57;;;;;;;12.90;5.03;;;20.90;69.20;;;;;;6269045;22;20020;-76
2022/10/28 12:33:38;;;;;;;15.77;5.65;;;20.90;69.20;;;;;;6266752;22;20023;-76
2022/10/28 12:36:03;;;;;;;17.90;5.00;;;20.90;69.10;;;;;;6269091;22;20016;-72
2022/10/28 12:38:39;;;;;;;16.27;5.70;;;20.90;69.20;;;;;;6240330;22;20028;-72
2022/10/28 12:41:24;;;;;;;23.23;6.18;;;20.90;69.20;;;;;;6241585;22;20133;-76
2022/10/28 12:44:03;;;;;;;19.38;5.65;;;20.90;69.40;;;;;;6268899;22;20016;-68
2022/10/28 12:46:53;;;;;;;18.77;6.05;;;20.90;69.40;;;;;;6240037;22;20030;-68
2022/10/28 12:49:46;;;;;;;14.50;5.53;;;20.90;69.40;;;;;;6240135;22;20024;-72
2022/10/28 12:52:26;;;;;;;15.95;5.57;;;20.90;69.30;;;;;;6241342;22;20069;-76
2022/10/28 12:55:17;;;;;;;15.00;5.50;;;20.90;69.60;;;;;;6266451;22;20087;-75
2022/10/28 12:57:52;;;;;;;14.07;5.80;;;20.90;69.60;;;;;;6240879;22;20062;-76
2022/10/28 13:00:30;;;;;;;16.83;5.82;;;20.90;69.80;;;;;;6240500;22;20016;-76
2022/10/28 13:03:02;;;;;;;;;;;20.90;69.60;;;;;;6240111;22;20348;-76
2022/10/28 13:05:38;;;;;;;14.77;5.40;;;20.80;69.40;;;;;;6239413;22;19976;-69
2022/10/28 13:08:40;;;;;;;14.23;5.53;;;20.90;69.60;;;;;;6240215;22;20127;-71